Time;durP1;ratioP1;P1;durP2;ratioP2;P2;SDS_P1;SDS_P2;PMS_P1;PMS_P2;Temp;Humidity;BMP_temperature;BMP_pressure;BME280_temperature;BME280_humidity;BME280_pressure;Samples;Min_cycle;Max_cycle;Signal;HPM_P1;HPM_P2
2021/12/07 00:00:35;;;;;;;37.75;25.42;;;5.00;99.90;;;;;;5067995;28;20777;-71
2021/12/07 00:03:00;;;;;;;40.72;26.42;;;5.00;99.90;;;;;;5063013;28;20417;-72
2021/12/07 00:05:26;;;;;;;39.60;25.50;;;5.00;99.90;;;;;;5064240;28;20415;-72
2021/12/07 00:07:52;;;;;;;37.03;15.75;;;5.00;99.90;;;;;;5063631;28;20415;-72
2021/12/07 00:10:18;;;;;;;42.05;8.05;;;5.00;99.90;;;;;;5032597;28;21218;-69
2021/12/07 00:12:45;;;;;;;29.00;4.53;;;5.00;99.90;;;;;;5063068;28;20807;-71
2021/12/07 00:15:16;;;;;;;31.52;4.30;;;5.20;99.90;;;;;;5067243;28;20415;-72
2021/12/07 00:17:45;;;;;;;29.20;3.95;;;5.30;99.90;;;;;;5065145;28;20446;-70
2021/12/07 00:20:16;;;;;;;27.27;3.78;;;5.50;99.90;;;;;;5061533;28;20415;-70
2021/12/07 00:22:44;;;;;;;30.42;4.53;;;5.60;99.90;;;;;;5060057;28;20452;-70
2021/12/07 00:25:10;;;;;;;18.10;3.50;;;5.70;99.90;;;;;;5065947;28;20465;-70
2021/12/07 00:27:36;;;;;;;22.40;3.15;;;5.80;99.90;;;;;;5062758;28;20411;-70
2021/12/07 00:30:05;;;;;;;19.03;3.03;;;5.90;99.90;;;;;;5064132;28;20472;-71
2021/12/07 00:32:34;;;;;;;24.42;3.55;;;6.00;99.90;;;;;;5057954;28;20473;-67
2021/12/07 00:37:30;;;;;;;29.85;3.75;;;6.10;99.90;;;;;;5060469;28;20424;-68
2021/12/07 00:39:57;;;;;;;28.00;3.80;;;6.10;99.90;;;;;;5063808;28;20440;-69
2021/12/07 00:42:23;;;;;;;26.42;3.97;;;6.20;99.90;;;;;;5045042;28;20411;-69
2021/12/07 00:44:49;;;;;;;25.75;3.95;;;6.20;99.90;;;;;;5047511;28;20412;-69
2021/12/07 00:47:15;;;;;;;29.93;4.07;;;6.30;99.90;;;;;;5044382;28;20416;-69
2021/12/07 00:49:42;;;;;;;29.58;3.85;;;6.40;99.90;;;;;;5066730;28;20408;-71
2021/12/07 00:52:09;;;;;;;24.33;3.40;;;6.40;99.90;;;;;;5046477;28;20418;-71
2021/12/07 00:54:35;;;;;;;26.43;3.43;;;6.40;99.90;;;;;;5049540;28;20449;-69
2021/12/07 00:57:02;;;;;;;20.83;3.38;;;6.50;99.90;;;;;;5024640;28;20415;-69
2021/12/07 00:59:29;;;;;;;18.95;3.50;;;6.50;99.90;;;;;;5064729;28;20418;-71
2021/12/07 01:01:55;;;;;;;19.00;3.05;;;6.50;99.90;;;;;;5040214;28;20428;-69
2021/12/07 01:04:22;;;;;;;19.30;3.40;;;6.50;99.90;;;;;;5047089;28;20506;-70
2021/12/07 01:07:01;;;;;;;18.83;2.80;;;6.60;99.90;;;;;;5043293;28;20858;-69
2021/12/07 01:09:42;;;;;;;19.20;3.38;;;6.60;99.90;;;;;;5067201;28;20468;-72
2021/12/07 01:25:55;;;;;;;22.10;2.90;;;6.60;99.90;;;;;;5062509;28;20414;-69
2021/12/07 01:28:38;;;;;;;20.70;3.13;;;6.60;99.90;;;;;;5043471;28;20404;-70
2021/12/07 01:31:16;;;;;;;22.40;3.40;;;6.60;99.90;;;;;;5044068;28;20409;-71
2021/12/07 01:36:44;;;;;;;19.70;3.05;;;6.70;99.90;;;;;;5044485;28;20803;-72
2021/12/07 01:39:37;;;;;;;19.45;2.90;;;6.70;99.90;;;;;;5046460;28;20904;-70
2021/12/07 01:48:05;;;;;;;14.48;2.47;;;6.70;99.90;;;;;;4990066;28;21174;-72
2021/12/07 01:50:48;;;;;;;11.13;1.92;;;6.70;99.90;;;;;;5040149;28;20565;-71
2021/12/07 01:58:05;;;;;;;5.90;1.00;;;6.70;99.90;;;;;;5043817;28;20415;-71
2021/12/07 02:01:41;;;;;;;6.45;1.25;;;6.70;99.90;;;;;;5035394;28;20581;-71
2021/12/07 02:04:07;;;;;;;10.47;1.80;;;6.60;99.90;;;;;;5046829;28;20407;-70
2021/12/07 02:06:33;;;;;;;12.55;2.40;;;6.60;99.90;;;;;;5044944;28;20828;-69
2021/12/07 02:08:59;;;;;;;13.70;2.40;;;6.60;99.90;;;;;;5044724;28;20399;-71
2021/12/07 02:11:30;;;;;;;14.15;2.40;;;6.60;99.90;;;;;;5039682;28;20400;-71
2021/12/07 02:16:28;;;;;;;23.45;3.17;;;6.70;99.90;;;;;;5041981;28;20423;-70
2021/12/07 02:18:55;;;;;;;18.13;3.05;;;6.70;99.90;;;;;;5044415;28;20961;-70
2021/12/07 02:21:25;;;;;;;21.05;3.15;;;6.80;99.90;;;;;;5037704;28;20415;-68
2021/12/07 02:23:59;;;;;;;22.02;2.72;;;6.80;99.90;;;;;;5074438;28;20411;-72
2021/12/07 02:26:25;;;;;;;18.20;2.97;;;6.80;99.90;;;;;;5044551;28;20399;-70
2021/12/07 02:28:52;;;;;;;18.38;3.10;;;6.80;99.90;;;;;;5046982;28;20446;-70
2021/12/07 02:31:20;;;;;;;19.17;3.20;;;6.80;99.90;;;;;;5043683;28;20753;-71
2021/12/07 02:33:46;;;;;;;19.70;2.83;;;6.80;99.90;;;;;;5041905;28;20755;-70
2021/12/07 02:36:12;;;;;;;18.23;2.85;;;6.80;99.90;;;;;;5076878;28;20415;-71
2021/12/07 02:38:38;;;;;;;15.35;2.95;;;6.80;99.90;;;;;;5041958;28;20453;-69
2021/12/07 02:41:04;;;;;;;15.00;2.85;;;6.80;99.90;;;;;;5060861;28;20415;-70
2021/12/07 02:43:30;;;;;;;19.92;2.70;;;6.90;99.90;;;;;;5065402;28;20443;-71
2021/12/07 02:45:56;;;;;;;14.93;2.90;;;6.80;99.90;;;;;;5065391;28;20832;-71
2021/12/07 02:48:23;;;;;;;19.08;3.05;;;6.80;99.90;;;;;;5063368;28;20403;-72
2021/12/07 02:50:50;;;;;;;19.83;3.47;;;6.90;99.90;;;;;;5067055;28;20418;-71
2021/12/07 02:53:25;;;;;;;23.10;3.45;;;6.90;99.90;;;;;;5073032;28;20488;-70
2021/12/07 02:55:51;;;;;;;24.90;3.38;;;6.90;99.90;;;;;;5075598;28;20402;-70
2021/12/07 02:58:18;;;;;;;25.55;3.13;;;7.00;99.90;;;;;;5045853;28;20408;-72
2021/12/07 03:00:51;;;;;;;21.73;3.33;;;7.00;99.90;;;;;;5062499;28;20469;-68
2021/12/07 03:03:18;;;;;;;16.55;2.90;;;7.00;99.90;;;;;;5063137;28;20911;-68
2021/12/07 03:05:55;;;;;;;21.10;2.83;;;7.00;99.90;;;;;;5082037;28;20453;-71
2021/12/07 03:27:57;;;;;;;22.08;3.72;;;7.00;99.90;;;;;;5067218;28;20490;-70
2021/12/07 03:30:24;;;;;;;25.30;3.58;;;7.00;99.90;;;;;;5073192;28;20396;-70
2021/12/07 03:32:50;;;;;;;27.80;3.63;;;7.00;99.90;;;;;;5068490;28;20418;-69
2021/12/07 03:35:16;;;;;;;20.27;3.40;;;7.10;99.90;;;;;;5068159;28;20396;-72
2021/12/07 03:37:42;;;;;;;18.95;3.40;;;7.10;99.90;;;;;;5067373;28;20947;-69
2021/12/07 03:40:11;;;;;;;15.48;3.10;;;7.10;99.90;;;;;;5052661;28;20501;-72
2021/12/07 03:42:37;;;;;;;23.35;3.40;;;7.10;99.90;;;;;;5068560;28;20490;-72
2021/12/07 03:45:06;;;;;;;22.90;3.50;;;7.20;99.90;;;;;;5069859;28;20407;-70
2021/12/07 03:47:31;;;;;;;20.03;3.40;;;7.20;99.90;;;;;;5067637;28;20995;-71
2021/12/07 03:49:57;;;;;;;23.42;3.55;;;7.20;99.90;;;;;;5078471;28;20495;-72
2021/12/07 03:52:23;;;;;;;26.20;3.42;;;7.30;99.90;;;;;;5066158;28;20423;-70
2021/12/07 03:54:49;;;;;;;20.33;3.43;;;7.30;99.90;;;;;;5051968;28;20429;-72
2021/12/07 03:57:15;;;;;;;21.45;3.42;;;7.30;99.90;;;;;;5067402;28;20434;-69
2021/12/07 03:59:41;;;;;;;19.02;2.80;;;7.30;99.90;;;;;;5068503;28;20806;-72
2021/12/07 04:02:07;;;;;;;18.08;2.80;;;7.30;99.90;;;;;;5066725;28;20589;-71
2021/12/07 04:04:36;;;;;;;26.25;3.17;;;7.30;99.90;;;;;;5066970;28;20438;-70
2021/12/07 04:07:02;;;;;;;19.60;3.05;;;7.30;99.90;;;;;;5068304;28;20414;-71
2021/12/07 04:09:28;;;;;;;23.52;3.08;;;7.30;99.90;;;;;;5070024;28;20416;-71
2021/12/07 04:11:54;;;;;;;16.52;2.72;;;7.40;99.90;;;;;;5065478;28;21078;-71
2021/12/07 04:14:20;;;;;;;15.75;2.60;;;7.40;99.90;;;;;;5088809;28;20413;-70
2021/12/07 04:16:45;;;;;;;13.00;2.10;;;7.40;99.90;;;;;;5067248;28;20842;-72
2021/12/07 04:19:11;;;;;;;12.15;2.22;;;7.40;99.90;;;;;;5067779;28;20415;-70
2021/12/07 04:21:37;;;;;;;14.67;2.50;;;7.40;99.90;;;;;;5065104;28;20428;-68
2021/12/07 04:24:03;;;;;;;12.40;2.08;;;7.40;99.90;;;;;;5067677;28;20481;-70
2021/12/07 04:26:31;;;;;;;13.38;2.00;;;7.40;99.90;;;;;;5076337;28;20405;-70
2021/12/07 04:28:56;;;;;;;11.43;2.45;;;7.40;99.90;;;;;;5069695;28;20483;-70
2021/12/07 04:31:22;;;;;;;11.85;2.47;;;7.40;99.90;;;;;;5071811;28;20884;-69
2021/12/07 04:33:48;;;;;;;15.35;2.38;;;7.30;99.90;;;;;;5074854;28;20409;-70
2021/12/07 04:36:14;;;;;;;12.90;2.50;;;7.40;99.90;;;;;;5071781;28;20413;-71
2021/12/07 04:38:40;;;;;;;13.20;2.38;;;7.40;99.90;;;;;;5072128;28;20424;-67
2021/12/07 04:41:07;;;;;;;13.30;2.42;;;7.30;99.90;;;;;;5066294;28;20432;-73
2021/12/07 04:43:34;;;;;;;17.30;3.97;;;7.30;99.90;;;;;;5062067;28;20472;-69
2021/12/07 04:46:11;;;;;;;17.80;3.13;;;7.40;99.90;;;;;;5065112;28;20424;-72
2021/12/07 04:49:24;;;;;;;20.88;2.85;;;7.40;99.90;;;;;;5058654;28;20484;-71
2021/12/07 04:59:51;;;;;;;16.60;2.20;;;7.30;99.90;;;;;;5065226;28;20420;-69
2021/12/07 05:02:18;;;;;;;13.93;2.30;;;7.30;99.90;;;;;;5060674;28;20871;-71
2021/12/07 05:04:43;;;;;;;11.35;2.40;;;7.20;99.90;;;;;;5064396;28;20412;-70
2021/12/07 05:07:17;;;;;;;14.30;2.30;;;7.20;99.90;;;;;;5060932;28;20490;-70
2021/12/07 05:10:14;;;;;;;9.82;1.55;;;7.20;99.90;;;;;;5065207;28;20910;-71
2021/12/07 05:15:04;;;;;;;9.65;2.10;;;7.10;99.90;;;;;;5045068;28;20411;-69
2021/12/07 05:17:56;;;;;;;12.00;2.00;;;7.10;99.90;;;;;;5041350;28;20444;-69
2021/12/07 05:39:31;;;;;;;17.13;2.60;;;6.90;99.90;;;;;;5065530;28;20912;-71
2021/12/07 05:41:57;;;;;;;18.77;2.25;;;6.90;99.90;;;;;;5045552;28;20189;-69
2021/12/07 05:44:23;;;;;;;20.42;2.63;;;6.50;99.90;;;;;;5065811;28;20214;-73
2021/12/07 05:46:48;;;;;;;17.38;2.88;;;6.30;99.90;;;;;;5057188;28;20912;-70
2021/12/07 05:49:14;;;;;;;24.70;3.30;;;6.50;99.90;;;;;;5046506;28;20907;-73
2021/12/07 05:51:40;;;;;;;21.20;3.40;;;6.70;99.90;;;;;;5062499;28;20507;-70
2021/12/07 05:54:05;;;;;;;24.13;2.97;;;6.80;99.90;;;;;;5048121;28;20411;-69
2021/12/07 05:56:31;;;;;;;18.35;2.85;;;6.80;99.90;;;;;;5053925;28;20453;-71
2021/12/07 05:58:57;;;;;;;16.63;2.57;;;6.90;99.90;;;;;;5064349;28;20470;-72
2021/12/07 06:01:23;;;;;;;16.92;3.00;;;6.90;99.90;;;;;;5053674;28;20435;-69
2021/12/07 06:03:48;;;;;;;16.80;3.00;;;7.00;99.90;;;;;;5063265;28;20460;-70
2021/12/07 06:06:14;;;;;;;22.23;3.00;;;7.00;99.90;;;;;;5062582;28;20405;-70
2021/12/07 06:08:40;;;;;;;21.13;2.87;;;7.00;99.90;;;;;;5062202;28;20410;-70
2021/12/07 06:11:05;;;;;;;20.10;3.22;;;7.00;99.90;;;;;;5062497;28;20403;-72
2021/12/07 06:13:31;;;;;;;20.70;2.80;;;7.00;99.90;;;;;;5059642;28;20411;-68
2021/12/07 06:16:03;;;;;;;21.20;3.03;;;7.00;99.90;;;;;;5059114;28;20447;-70
2021/12/07 06:18:28;;;;;;;18.10;2.97;;;7.00;99.90;;;;;;5035228;28;20411;-69
2021/12/07 06:20:54;;;;;;;24.53;3.10;;;7.00;99.90;;;;;;5039562;28;20407;-71
2021/12/07 06:23:20;;;;;;;17.67;2.92;;;7.00;99.90;;;;;;5058215;28;20768;-71
2021/12/07 06:25:48;;;;;;;22.05;3.10;;;7.00;99.90;;;;;;5060153;28;20439;-69
2021/12/07 06:28:14;;;;;;;19.70;2.97;;;7.00;99.90;;;;;;5058823;28;20971;-69
2021/12/07 06:30:40;;;;;;;20.63;3.10;;;7.10;99.90;;;;;;5063708;28;20532;-70
2021/12/07 06:33:06;;;;;;;22.05;3.25;;;7.10;99.90;;;;;;5054152;28;20915;-69
2021/12/07 06:35:32;;;;;;;20.30;3.25;;;7.10;99.90;;;;;;5061417;28;20462;-69
2021/12/07 06:37:57;;;;;;;22.60;3.30;;;7.10;99.90;;;;;;5059240;28;20855;-71
2021/12/07 06:40:23;;;;;;;17.10;2.93;;;7.10;99.90;;;;;;5068168;28;20942;-71
2021/12/07 06:42:49;;;;;;;15.13;2.77;;;7.10;99.90;;;;;;5067125;28;20454;-72
2021/12/07 06:45:14;;;;;;;19.70;3.10;;;7.10;99.90;;;;;;5064898;28;20506;-70
2021/12/07 06:47:41;;;;;;;18.63;3.03;;;7.10;99.90;;;;;;5065826;28;20851;-70
2021/12/07 06:50:09;;;;;;;17.95;3.00;;;7.10;99.90;;;;;;5065730;28;20907;-69
2021/12/07 06:52:35;;;;;;;22.05;3.58;;;7.10;99.90;;;;;;5063936;28;20489;-70
2021/12/07 06:55:02;;;;;;;18.50;3.35;;;7.10;99.90;;;;;;5066255;28;21800;-70
2021/12/07 06:57:28;;;;;;;18.67;3.08;;;7.00;99.90;;;;;;5068774;28;20921;-71
2021/12/07 06:59:55;;;;;;;15.43;2.73;;;7.00;99.90;;;;;;5068196;28;20407;-72
2021/12/07 07:02:20;;;;;;;16.73;2.40;;;7.00;99.90;;;;;;5068344;28;20945;-70
2021/12/07 07:04:46;;;;;;;21.93;3.83;;;7.00;99.90;;;;;;5070174;28;20411;-71
2021/12/07 07:07:12;;;;;;;20.33;3.28;;;7.00;99.90;;;;;;5081001;28;20437;-71
2021/12/07 07:09:38;;;;;;;20.38;2.90;;;6.90;99.90;;;;;;5069537;28;20399;-71
2021/12/07 07:12:04;;;;;;;20.70;3.17;;;6.90;99.90;;;;;;5069514;28;20494;-73
2021/12/07 07:14:29;;;;;;;18.17;3.33;;;6.90;99.90;;;;;;5068063;28;20414;-71
2021/12/07 07:16:55;;;;;;;20.43;3.43;;;6.90;99.90;;;;;;5079036;28;20767;-70
2021/12/07 07:19:21;;;;;;;19.95;3.08;;;6.90;99.90;;;;;;5069598;28;20415;-69
2021/12/07 07:21:46;;;;;;;18.47;3.40;;;6.90;99.90;;;;;;5054355;28;20549;-71
2021/12/07 07:24:12;;;;;;;17.40;2.97;;;6.90;99.90;;;;;;5069746;28;20411;-70
2021/12/07 07:26:38;;;;;;;15.63;2.97;;;6.90;99.90;;;;;;5069432;28;20415;-71
2021/12/07 07:29:04;;;;;;;15.30;3.13;;;6.90;99.90;;;;;;5068992;28;20475;-70
2021/12/07 07:31:29;;;;;;;19.45;3.38;;;6.90;99.90;;;;;;5069161;28;20472;-71
2021/12/07 07:33:55;;;;;;;15.47;2.83;;;6.90;99.90;;;;;;5070270;28;20961;-71
2021/12/07 07:36:21;;;;;;;18.40;3.10;;;6.90;99.90;;;;;;5074780;28;20900;-71
2021/12/07 07:38:47;;;;;;;20.42;2.95;;;6.90;99.90;;;;;;5067712;28;20492;-70
2021/12/07 07:41:13;;;;;;;17.63;4.20;;;6.90;99.90;;;;;;5066053;28;20419;-70
2021/12/07 07:43:38;;;;;;;16.48;2.65;;;6.90;99.90;;;;;;5072090;28;20422;-71
2021/12/07 07:46:10;;;;;;;19.15;2.80;;;6.90;99.90;;;;;;5059833;28;20858;-71
2021/12/07 07:48:35;;;;;;;18.97;2.83;;;6.90;99.90;;;;;;5059075;28;20403;-70
2021/12/07 07:51:01;;;;;;;15.95;2.97;;;6.90;99.90;;;;;;5059648;28;20413;-69
2021/12/07 07:53:27;;;;;;;16.88;2.95;;;6.90;99.90;;;;;;5060123;28;20399;-71
2021/12/07 07:55:56;;;;;;;18.58;3.20;;;7.00;99.90;;;;;;5030341;28;20407;-69
2021/12/07 07:58:22;;;;;;;15.60;3.13;;;7.00;99.90;;;;;;5067031;28;20498;-72
2021/12/07 08:00:48;;;;;;;14.48;3.17;;;7.00;99.90;;;;;;5065053;28;20424;-71
2021/12/07 08:03:14;;;;;;;12.45;3.03;;;7.10;99.90;;;;;;5064447;28;20415;-69
2021/12/07 08:05:40;;;;;;;17.70;3.00;;;7.10;99.90;;;;;;5048162;28;20419;-70
2021/12/07 08:08:07;;;;;;;18.73;3.45;;;7.20;99.90;;;;;;5080950;28;20415;-70
2021/12/07 08:10:32;;;;;;;20.30;2.90;;;7.20;99.90;;;;;;5062447;28;20399;-69
2021/12/07 08:13:00;;;;;;;14.63;2.83;;;7.30;99.90;;;;;;5068518;28;20387;-68
2021/12/07 08:15:28;;;;;;;17.08;3.05;;;7.30;99.90;;;;;;5046870;28;20422;-70
2021/12/07 08:17:55;;;;;;;15.43;2.97;;;7.30;99.90;;;;;;5049759;28;20419;-74
2021/12/07 08:20:23;;;;;;;16.50;2.97;;;7.30;99.90;;;;;;5047674;28;20734;-73
2021/12/07 08:22:50;;;;;;;15.38;2.85;;;7.40;99.90;;;;;;5046746;28;20447;-71
2021/12/07 08:25:16;;;;;;;15.88;3.67;;;7.40;99.90;;;;;;5062352;28;20888;-72
2021/12/07 08:27:41;;;;;;;22.87;3.37;;;7.40;99.90;;;;;;5063960;28;20465;-70
2021/12/07 08:30:10;;;;;;;13.98;3.40;;;7.50;99.90;;;;;;5043743;28;20464;-70
2021/12/07 08:32:36;;;;;;;13.25;2.83;;;7.50;99.90;;;;;;5054683;28;20418;-70
2021/12/07 08:35:02;;;;;;;17.87;3.03;;;7.50;99.90;;;;;;5063693;28;20461;-71
2021/12/07 08:37:28;;;;;;;17.35;3.47;;;7.60;99.90;;;;;;5062009;28;20481;-69
2021/12/07 08:39:54;;;;;;;16.58;3.25;;;7.60;99.90;;;;;;5070757;28;20418;-70
2021/12/07 08:42:20;;;;;;;16.42;3.70;;;7.60;99.90;;;;;;5068017;28;20473;-70
2021/12/07 08:44:46;;;;;;;16.67;3.80;;;7.70;99.90;;;;;;5066932;28;20419;-71
2021/12/07 08:47:12;;;;;;;16.17;3.90;;;7.80;99.90;;;;;;5067215;28;20415;-70
2021/12/07 08:49:38;;;;;;;20.17;4.20;;;7.80;99.90;;;;;;5070397;28;20914;-71
2021/12/07 08:52:04;;;;;;;14.05;3.70;;;7.90;99.90;;;;;;5067174;28;20403;-72
2021/12/07 08:59:52;;;;;;;13.43;3.40;;;8.20;99.90;;;;;;5067816;28;20488;-71
2021/12/07 09:02:21;;;;;;;17.67;3.70;;;8.20;99.90;;;;;;5068263;28;20412;-72
2021/12/07 09:04:48;;;;;;;19.77;3.50;;;8.20;99.90;;;;;;5067553;28;20446;-69
2021/12/07 09:07:15;;;;;;;19.40;4.03;;;8.10;99.90;;;;;;5067456;28;20490;-72
2021/12/07 09:09:43;;;;;;;18.37;4.00;;;8.00;99.90;;;;;;5067692;28;20403;-70
2021/12/07 09:12:10;;;;;;;17.80;4.70;;;8.00;99.90;;;;;;5069836;28;20449;-72
2021/12/07 09:14:37;;;;;;;15.33;3.70;;;8.00;99.90;;;;;;5069242;28;20427;-70
2021/12/07 09:17:05;;;;;;;17.20;4.60;;;8.00;99.90;;;;;;5070865;28;20899;-72
2021/12/07 09:19:32;;;;;;;18.17;4.50;;;7.90;99.90;;;;;;5070704;28;20410;-69
2021/12/07 09:21:58;;;;;;;17.33;3.80;;;7.90;99.90;;;;;;5070825;28;20419;-71
2021/12/07 09:24:26;;;;;;;16.33;3.90;;;7.90;99.90;;;;;;5065985;28;20469;-70
2021/12/07 09:26:53;;;;;;;13.83;3.93;;;7.90;99.90;;;;;;5066627;28;20419;-69
2021/12/07 09:29:19;;;;;;;16.80;4.00;;;7.90;99.90;;;;;;5069384;28;20434;-70
2021/12/07 09:31:45;;;;;;;13.43;3.67;;;7.80;99.90;;;;;;5066675;28;20884;-71
2021/12/07 09:34:11;;;;;;;18.55;4.20;;;7.80;99.90;;;;;;5066104;28;20407;-70
2021/12/07 09:36:40;;;;;;;18.48;3.90;;;7.70;99.90;;;;;;5067192;28;20407;-70
2021/12/07 09:39:08;;;;;;;17.88;4.05;;;7.60;99.90;;;;;;5067049;28;21014;-72
2021/12/07 09:41:34;;;;;;;16.02;4.13;;;7.60;99.90;;;;;;5066109;28;20753;-70
2021/12/07 09:44:00;;;;;;;16.65;3.80;;;7.80;99.90;;;;;;5067251;28;20425;-70
2021/12/07 09:46:26;;;;;;;15.77;3.80;;;8.60;99.90;;;;;;5066783;28;20883;-70
2021/12/07 09:48:53;;;;;;;15.55;4.03;;;9.10;99.90;;;;;;5065264;28;20404;-70
2021/12/07 09:51:22;;;;;;;16.90;4.13;;;9.40;99.00;;;;;;5066865;28;20415;-70
2021/12/07 09:53:49;;;;;;;14.77;3.95;;;9.60;98.50;;;;;;5066899;28;20914;-72
2021/12/07 09:56:18;;;;;;;13.80;3.83;;;10.30;98.30;;;;;;5062296;28;20478;-72
2021/12/07 09:58:44;;;;;;;12.90;3.40;;;11.10;96.40;;;;;;5066641;28;20468;-72
2021/12/07 10:01:11;;;;;;;15.13;3.30;;;11.50;94.80;;;;;;5063838;28;20447;-70
2021/12/07 10:03:38;;;;;;;12.45;3.60;;;11.50;94.00;;;;;;5063825;28;20435;-69
2021/12/07 10:06:04;;;;;;;17.00;4.40;;;11.30;93.90;;;;;;5066802;28;20411;-71
2021/12/07 10:08:31;;;;;;;14.60;3.78;;;11.00;94.30;;;;;;5064148;28;20411;-70
2021/12/07 10:10:59;;;;;;;18.60;4.03;;;10.70;94.70;;;;;;5074402;28;20897;-71
2021/12/07 10:13:27;;;;;;;19.10;4.53;;;10.40;95.20;;;;;;5066776;28;20851;-71
2021/12/07 10:15:55;;;;;;;12.93;3.90;;;10.10;95.90;;;;;;5065849;28;20395;-71
2021/12/07 10:18:27;;;;;;;18.27;3.80;;;9.90;96.60;;;;;;5076084;28;21065;-70
2021/12/07 10:20:59;;;;;;;15.95;4.07;;;9.70;97.00;;;;;;5064452;28;20446;-73
2021/12/07 10:23:33;;;;;;;19.75;3.83;;;9.60;97.20;;;;;;5063238;28;20419;-71
2021/12/07 10:26:03;;;;;;;17.67;3.80;;;9.50;97.60;;;;;;5068918;28;20185;-71
2021/12/07 10:28:39;;;;;;;16.25;3.60;;;9.00;98.40;;;;;;5066581;28;21543;-71
2021/12/07 10:31:23;;;;;;;20.88;3.80;;;8.60;99.00;;;;;;5066216;28;20186;-72
2021/12/07 10:33:53;;;;;;;14.02;3.63;;;8.30;99.50;;;;;;5065560;28;20182;-72
2021/12/07 10:36:35;;;;;;;17.50;4.00;;;8.20;99.90;;;;;;5063706;28;20472;-71
2021/12/07 10:39:13;;;;;;;14.60;3.75;;;8.50;99.90;;;;;;5065846;28;20186;-71
2021/12/07 10:41:43;;;;;;;14.65;3.67;;;8.30;99.90;;;;;;5062850;28;20194;-73
2021/12/07 10:44:31;;;;;;;15.95;3.85;;;8.10;99.90;;;;;;5064533;28;20206;-72
2021/12/07 10:47:01;;;;;;;13.93;3.50;;;8.00;99.90;;;;;;5038485;28;20251;-70
2021/12/07 10:49:32;;;;;;;15.60;3.58;;;8.00;99.90;;;;;;5042414;28;20410;-71
2021/12/07 10:52:04;;;;;;;18.42;3.78;;;8.50;99.90;;;;;;5040653;28;20411;-71
2021/12/07 10:54:39;;;;;;;15.80;3.50;;;8.90;99.90;;;;;;5060463;28;20407;-71
2021/12/07 10:57:10;;;;;;;15.88;3.50;;;9.10;99.50;;;;;;5059935;28;20457;-70
2021/12/07 10:59:38;;;;;;;17.38;3.72;;;9.20;99.30;;;;;;5060113;28;20427;-71
2021/12/07 11:02:18;;;;;;;20.38;3.92;;;9.30;99.10;;;;;;5036104;28;20470;-71
2021/12/07 11:04:46;;;;;;;13.48;3.50;;;9.40;98.60;;;;;;5054696;28;20427;-71
2021/12/07 11:07:19;;;;;;;19.75;3.72;;;9.40;98.50;;;;;;5059605;28;20884;-69
2021/12/07 11:09:56;;;;;;;17.65;3.50;;;9.50;98.60;;;;;;5062493;28;20392;-72
2021/12/07 11:12:23;;;;;;;17.80;3.65;;;9.60;98.30;;;;;;5053696;28;20409;-69
2021/12/07 11:14:53;;;;;;;15.18;3.28;;;9.70;97.90;;;;;;5059463;28;20411;-69
2021/12/07 11:17:23;;;;;;;16.67;3.50;;;9.90;97.80;;;;;;5055907;28;20420;-71
2021/12/07 11:19:50;;;;;;;17.27;3.77;;;10.10;97.80;;;;;;5064630;28;20508;-71
2021/12/07 11:22:19;;;;;;;21.13;4.00;;;10.50;96.80;;;;;;5055841;28;20825;-71
2021/12/07 11:24:46;;;;;;;17.17;3.70;;;10.80;96.30;;;;;;5058334;28;20500;-71
2021/12/07 11:30:07;;;;;;;16.23;3.83;;;11.40;94.60;;;;;;5062859;28;20414;-73
2021/12/07 11:32:33;;;;;;;17.83;3.97;;;11.70;94.00;;;;;;5059034;28;20452;-71
2021/12/07 11:35:18;;;;;;;10.80;3.30;;;11.90;93.40;;;;;;5044897;28;20693;-72
2021/12/07 11:37:45;;;;;;;14.68;3.25;;;12.20;93.10;;;;;;5037322;28;20472;-72
2021/12/07 11:40:11;;;;;;;15.77;3.53;;;12.40;92.40;;;;;;5071482;28;20780;-70
2021/12/07 11:42:42;;;;;;;12.67;3.47;;;12.60;91.70;;;;;;5067968;28;20411;-72
2021/12/07 11:45:28;;;;;;;16.00;3.42;;;12.70;91.10;;;;;;5069578;28;20912;-68
2021/12/07 11:47:57;;;;;;;13.17;3.23;;;12.80;90.20;;;;;;5070692;28;20415;-70
2021/12/07 11:50:34;;;;;;;15.73;3.35;;;12.90;89.00;;;;;;5069662;28;20484;-71
2021/12/07 11:53:08;;;;;;;14.07;2.93;;;12.80;87.70;;;;;;5068772;28;20921;-69
2021/12/07 11:55:36;;;;;;;13.82;2.90;;;12.80;88.10;;;;;;5067604;28;20422;-70
2021/12/07 11:58:04;;;;;;;20.30;3.30;;;12.70;87.90;;;;;;5066757;28;20912;-71
2021/12/07 12:00:35;;;;;;;14.73;3.20;;;12.50;88.00;;;;;;5070124;28;20481;-71
2021/12/07 12:03:10;;;;;;;10.40;3.13;;;12.30;89.50;;;;;;5072134;28;20420;-71
2021/12/07 12:05:41;;;;;;;15.70;3.50;;;12.20;89.60;;;;;;5067747;28;20426;-70
2021/12/07 12:08:09;;;;;;;16.90;3.97;;;12.00;89.40;;;;;;5066880;28;20469;-70
2021/12/07 12:10:41;;;;;;;16.40;3.45;;;11.90;90.00;;;;;;5068056;28;20461;-70
2021/12/07 12:13:46;;;;;;;19.10;3.78;;;11.80;90.30;;;;;;5067726;28;20419;-72
2021/12/07 12:16:20;;;;;;;17.42;3.83;;;11.70;90.90;;;;;;5066693;28;21061;-71
2021/12/07 12:19:04;;;;;;;12.25;3.35;;;11.70;91.10;;;;;;5068601;28;20219;-71
2021/12/07 12:22:02;;;;;;;9.57;3.90;;;11.10;92.00;;;;;;5068120;28;20745;-72
2021/12/07 12:24:51;;;;;;;18.67;4.50;;;10.50;92.80;;;;;;5066138;28;20420;-71
2021/12/07 12:27:21;;;;;;;20.42;5.30;;;10.80;92.20;;;;;;5068268;28;20407;-71
2021/12/07 12:29:50;;;;;;;20.50;5.33;;;10.80;92.30;;;;;;5068835;28;20494;-70
2021/12/07 12:32:41;;;;;;;23.10;5.68;;;10.80;92.20;;;;;;5069558;28;20399;-71
2021/12/07 12:35:09;;;;;;;22.55;5.60;;;10.70;92.30;;;;;;5070759;28;20431;-71
2021/12/07 12:37:36;;;;;;;25.25;5.60;;;10.50;91.90;;;;;;5072970;28;20416;-73
2021/12/07 12:40:05;;;;;;;22.13;5.55;;;10.40;92.20;;;;;;5068298;28;20423;-73
2021/12/07 12:42:42;;;;;;;23.10;5.72;;;10.30;91.90;;;;;;5067312;28;20886;-73
2021/12/07 12:45:20;;;;;;;22.23;5.90;;;10.10;92.50;;;;;;5067135;28;20423;-72
2021/12/07 12:47:54;;;;;;;25.55;6.32;;;10.10;92.60;;;;;;5065600;28;20415;-72
2021/12/07 12:50:49;;;;;;;27.40;6.95;;;10.10;93.40;;;;;;5081806;28;20417;-72
2021/12/07 12:53:31;;;;;;;26.48;7.25;;;10.00;93.40;;;;;;5056282;28;20491;-71
2021/12/07 12:56:07;;;;;;;29.00;7.03;;;9.90;93.70;;;;;;5074571;28;20428;-71
2021/12/07 12:58:37;;;;;;;27.83;7.22;;;9.80;94.00;;;;;;5066423;28;20419;-71
2021/12/07 13:01:39;;;;;;;27.55;7.22;;;9.70;94.10;;;;;;5065576;28;20408;-71
2021/12/07 13:04:14;;;;;;;25.75;6.88;;;9.70;94.00;;;;;;5004744;28;20539;-70
2021/12/07 13:06:46;;;;;;;27.45;7.00;;;9.60;94.10;;;;;;5053212;28;20959;-70
2021/12/07 13:09:17;;;;;;;27.52;7.90;;;9.70;94.00;;;;;;5072424;28;20422;-70
2021/12/07 13:11:54;;;;;;;32.25;8.50;;;9.60;94.10;;;;;;5063501;28;20948;-71
2021/12/07 13:14:23;;;;;;;31.10;8.70;;;9.60;93.90;;;;;;5065198;28;20415;-71
2021/12/07 13:17:02;;;;;;;28.95;7.65;;;9.60;94.00;;;;;;5066372;28;20451;-71
2021/12/07 13:19:29;;;;;;;25.07;7.57;;;9.60;94.10;;;;;;5059434;28;20419;-71
2021/12/07 13:22:06;;;;;;;25.97;7.50;;;9.50;94.00;;;;;;5064329;28;20419;-70
2021/12/07 13:24:40;;;;;;;24.77;7.53;;;9.50;94.30;;;;;;5073364;28;20575;-71
2021/12/07 13:27:13;;;;;;;22.83;6.53;;;9.50;94.30;;;;;;5072051;28;20415;-71
2021/12/07 13:29:45;;;;;;;21.52;6.68;;;9.40;94.20;;;;;;5068426;28;20407;-71
2021/12/07 13:32:11;;;;;;;20.80;6.60;;;9.30;94.60;;;;;;5065707;28;20407;-71
2021/12/07 13:34:38;;;;;;;16.25;5.95;;;9.30;94.80;;;;;;5066990;28;20745;-70
2021/12/07 13:37:07;;;;;;;14.95;5.82;;;9.20;94.80;;;;;;5066668;28;20519;-71
2021/12/07 13:39:34;;;;;;;18.63;6.57;;;9.20;94.90;;;;;;5069176;28;20494;-71
2021/12/07 13:42:00;;;;;;;21.70;6.30;;;9.10;95.10;;;;;;5049975;28;20514;-70
2021/12/07 13:44:30;;;;;;;17.58;6.03;;;9.10;95.40;;;;;;5063615;28;21255;-70
2021/12/07 13:47:06;;;;;;;17.43;6.37;;;9.10;95.40;;;;;;5032834;28;20419;-71
2021/12/07 13:49:33;;;;;;;18.63;5.85;;;9.10;95.40;;;;;;5065558;28;20900;-70
2021/12/07 13:51:59;;;;;;;19.05;6.50;;;9.00;95.60;;;;;;5039043;28;20860;-70
2021/12/07 13:54:25;;;;;;;20.50;5.88;;;9.00;96.00;;;;;;5065882;28;20438;-70
2021/12/07 13:56:52;;;;;;;17.50;5.72;;;8.90;96.10;;;;;;5040832;28;21260;-71
2021/12/07 13:59:21;;;;;;;17.42;5.40;;;8.90;96.20;;;;;;5064940;28;20464;-70
2021/12/07 14:01:56;;;;;;;13.95;5.10;;;8.80;96.00;;;;;;5059142;28;20417;-71
2021/12/07 14:04:27;;;;;;;17.77;5.43;;;8.70;95.80;;;;;;5046276;28;20415;-71
2021/12/07 14:06:53;;;;;;;17.40;5.18;;;8.60;95.80;;;;;;5057991;28;20869;-71
2021/12/07 14:09:19;;;;;;;12.80;4.63;;;8.50;96.20;;;;;;5065239;28;20411;-70
2021/12/07 14:11:57;;;;;;;17.88;5.63;;;8.50;96.50;;;;;;5061113;28;20704;-70
2021/12/07 14:14:25;;;;;;;14.17;5.43;;;8.50;96.50;;;;;;5061325;28;20415;-72
2021/12/07 14:16:55;;;;;;;19.52;5.28;;;8.40;96.30;;;;;;5039879;28;20454;-71
2021/12/07 14:19:21;;;;;;;16.55;4.88;;;8.40;96.60;;;;;;5059897;28;20403;-70
2021/12/07 14:21:47;;;;;;;16.13;5.10;;;8.40;96.60;;;;;;5057112;28;20999;-71
2021/12/07 14:24:18;;;;;;;22.25;5.30;;;8.40;96.90;;;;;;5065886;28;20458;-72
2021/12/07 14:26:44;;;;;;;17.02;5.07;;;8.30;96.70;;;;;;5052466;28;20421;-71